createdAt,value
2023-12-28T00:00:52.395Z,9.50
2023-12-28T00:02:24.087Z,9.13
2023-12-28T00:03:55.858Z,9.43
2023-12-28T00:05:27.678Z,10.40
2023-12-28T00:06:59.393Z,10.50
2023-12-28T00:08:33.537Z,7.95
2023-12-28T00:10:05.618Z,8.77
2023-12-28T00:11:37.508Z,9.07
2023-12-28T00:13:09.174Z,9.35
2023-12-28T00:14:40.777Z,8.70
2023-12-28T00:16:12.443Z,8.98
2023-12-28T00:17:44.344Z,9.73
2023-12-28T00:19:16.241Z,9.35
2023-12-28T00:20:47.837Z,9.95
2023-12-28T00:22:19.493Z,8.68
2023-12-28T00:23:51.127Z,8.20
2023-12-28T00:25:22.910Z,9.52
2023-12-28T00:26:54.542Z,9.85
2023-12-28T00:28:26.116Z,8.77
2023-12-28T00:29:57.704Z,8.80
2023-12-28T00:31:29.563Z,8.65
2023-12-28T00:33:01.340Z,8.43
2023-12-28T00:34:33.194Z,7.63
2023-12-28T00:36:05.199Z,8.52
2023-12-28T00:37:36.924Z,8.20
2023-12-28T00:39:09.473Z,8.15
2023-12-28T00:40:41.089Z,8.40
2023-12-28T00:42:12.720Z,8.38
2023-12-28T00:43:44.341Z,8.80
2023-12-28T00:45:16.101Z,9.15
2023-12-28T00:46:47.740Z,7.88
2023-12-28T00:48:19.492Z,7.97
2023-12-28T00:49:51.277Z,7.55
2023-12-28T00:51:22.977Z,8.27
2023-12-28T00:52:54.687Z,7.40
2023-12-28T00:54:26.289Z,8.57
2023-12-28T00:55:58.237Z,8.38
2023-12-28T00:57:29.888Z,7.78
2023-12-28T00:59:03.542Z,7.30
2023-12-28T01:00:35.215Z,7.82
2023-12-28T01:02:07.002Z,7.60
2023-12-28T01:03:38.750Z,7.47
2023-12-28T01:05:10.577Z,7.85
2023-12-28T01:06:42.172Z,7.43
2023-12-28T01:08:14.126Z,7.03
2023-12-28T01:09:45.752Z,7.28
2023-12-28T01:11:17.443Z,7.78
2023-12-28T01:12:49.265Z,6.78
2023-12-28T01:14:20.981Z,6.72
2023-12-28T01:15:52.682Z,5.72
2023-12-28T01:17:24.367Z,6.28
2023-12-28T01:18:56.115Z,5.95
2023-12-28T01:20:27.815Z,6.70
2023-12-28T01:21:59.462Z,6.15
2023-12-28T01:23:31.040Z,6.32
2023-12-28T01:25:03.081Z,5.80
2023-12-28T01:26:35.833Z,6.93
2023-12-28T01:28:07.542Z,7.20
2023-12-28T01:29:39.161Z,7.03
2023-12-28T01:31:10.955Z,7.60
2023-12-28T01:32:42.998Z,7.10
2023-12-28T01:34:14.935Z,7.22
2023-12-28T01:35:46.689Z,7.38
2023-12-28T01:37:18.472Z,7.28
2023-12-28T01:38:50.072Z,7.18
2023-12-28T01:40:21.668Z,6.30
2023-12-28T01:41:53.524Z,5.93
2023-12-28T01:43:25.173Z,6.10
2023-12-28T01:44:58.519Z,6.22
2023-12-28T01:46:30.221Z,6.45
2023-12-28T01:48:02.151Z,6.55
2023-12-28T01:49:35.742Z,7.03
2023-12-28T01:51:08.301Z,7.13
2023-12-28T01:52:40.146Z,6.15
2023-12-28T01:54:12.130Z,6.75
2023-12-28T01:55:43.870Z,6.72
2023-12-28T01:57:16.185Z,6.88
2023-12-28T01:58:50.543Z,7.18
2023-12-28T02:00:25.766Z,6.38
2023-12-28T02:01:57.468Z,6.80
2023-12-28T02:03:30.299Z,6.85
2023-12-28T02:05:02.566Z,6.88
2023-12-28T02:06:34.336Z,6.28
2023-12-28T02:08:06.525Z,6.43
2023-12-28T02:09:38.199Z,5.95
2023-12-28T02:11:10.044Z,5.78
2023-12-28T02:12:42.302Z,5.93
2023-12-28T02:14:14.051Z,7.07
2023-12-28T02:15:51.489Z,7.03
2023-12-28T02:17:28.749Z,5.97
2023-12-28T02:19:31.235Z,6.07
2023-12-28T02:21:04.146Z,5.75
2023-12-28T02:22:36.528Z,6.55
2023-12-28T02:24:08.108Z,6.47
2023-12-28T02:25:39.737Z,5.03
2023-12-28T02:27:11.340Z,5.47
2023-12-28T02:28:43.199Z,5.57
2023-12-28T02:30:18.434Z,5.55
2023-12-28T02:32:02.437Z,5.60
2023-12-28T02:33:48.826Z,5.38
2023-12-28T02:35:34.184Z,5.65
2023-12-28T02:37:06.723Z,6.47
2023-12-28T02:38:40.441Z,5.75
2023-12-28T02:40:15.595Z,5.57
2023-12-28T02:41:47.428Z,5.20
2023-12-28T02:43:19.415Z,4.80
2023-12-28T02:44:51.499Z,5.60
2023-12-28T02:46:23.120Z,6.53
2023-12-28T02:47:54.846Z,5.75
2023-12-28T02:49:26.630Z,5.43
2023-12-28T02:50:58.345Z,5.95
2023-12-28T02:52:29.962Z,5.63
2023-12-28T02:54:01.567Z,5.93
2023-12-28T02:55:33.262Z,5.82
2023-12-28T02:57:05.215Z,5.63
2023-12-28T02:58:36.814Z,5.95
2023-12-28T03:00:10.041Z,6.32
2023-12-28T03:01:41.705Z,5.50
2023-12-28T03:03:13.559Z,5.78
2023-12-28T03:04:45.297Z,5.53
2023-12-28T03:06:16.960Z,5.45
2023-12-28T03:07:48.648Z,6.30
2023-12-28T03:09:20.333Z,5.90
2023-12-28T03:10:53.929Z,6.13
2023-12-28T03:12:25.843Z,6.57
2023-12-28T03:13:57.486Z,6.65
2023-12-28T03:15:29.278Z,7.75
2023-12-28T03:17:00.916Z,6.35
2023-12-28T03:18:34.361Z,6.78
2023-12-28T03:20:06.965Z,6.25
2023-12-28T03:21:41.708Z,6.07
2023-12-28T03:23:14.069Z,6.63
2023-12-28T03:24:45.889Z,5.47
2023-12-28T03:26:17.540Z,5.80
2023-12-28T03:27:49.223Z,7.00
2023-12-28T03:29:21.396Z,6.47
2023-12-28T03:30:53.196Z,6.15
2023-12-28T03:32:24.930Z,6.30
2023-12-28T03:33:56.657Z,6.38
2023-12-28T03:35:28.414Z,7.20
2023-12-28T03:37:00.031Z,7.60
2023-12-28T03:38:31.612Z,6.20
2023-12-28T03:40:03.562Z,6.32
2023-12-28T03:41:35.251Z,5.68
2023-12-28T03:43:06.845Z,5.53
2023-12-28T03:44:38.446Z,6.03
2023-12-28T03:46:10.691Z,5.30
2023-12-28T03:47:42.400Z,5.63
2023-12-28T03:49:17.668Z,5.88
2023-12-28T03:50:49.373Z,5.43
2023-12-28T03:52:21.081Z,6.00
2023-12-28T03:53:52.712Z,5.65
2023-12-28T03:55:24.309Z,6.18
2023-12-28T03:56:56.862Z,6.63
2023-12-28T03:58:28.471Z,6.57
2023-12-28T04:00:00.278Z,5.43
2023-12-28T04:01:32.043Z,5.72
2023-12-28T04:03:03.976Z,6.30
2023-12-28T04:04:36.125Z,5.50
2023-12-28T04:06:08.211Z,5.28
2023-12-28T04:07:39.812Z,6.00
2023-12-28T04:09:14.481Z,5.25
2023-12-28T04:10:46.121Z,6.10
2023-12-28T04:12:17.784Z,5.72
2023-12-28T04:13:49.456Z,6.88
2023-12-28T04:15:21.252Z,7.70
2023-12-28T04:16:52.934Z,6.43
2023-12-28T04:18:24.765Z,7.28
2023-12-28T04:19:56.696Z,8.52
2023-12-28T04:21:28.480Z,9.77
2023-12-28T04:23:00.233Z,17.02
2023-12-28T04:24:31.922Z,11.95
2023-12-28T04:26:04.083Z,10.65
2023-12-28T04:27:36.053Z,9.25
2023-12-28T04:29:08.400Z,9.10
2023-12-28T04:30:40.102Z,9.73
2023-12-28T04:32:11.726Z,8.95
2023-12-28T04:33:43.454Z,8.48
2023-12-28T04:35:15.155Z,8.15
2023-12-28T04:36:47.852Z,7.15
2023-12-28T04:38:19.985Z,6.20
2023-12-28T04:39:51.732Z,6.53
2023-12-28T04:41:23.462Z,6.53
2023-12-28T04:42:55.201Z,5.80
2023-12-28T04:44:27.308Z,6.45
2023-12-28T04:46:03.331Z,6.55
2023-12-28T04:49:06.755Z,6.50
2023-12-28T04:50:39.898Z,5.80
2023-12-28T04:52:11.713Z,6.22
2023-12-28T04:53:43.296Z,7.15
2023-12-28T04:55:15.090Z,6.13
2023-12-28T04:56:46.690Z,5.45
2023-12-28T04:58:18.307Z,5.10
2023-12-28T04:59:51.757Z,5.32
2023-12-28T05:01:25.481Z,5.40
2023-12-28T05:02:57.150Z,5.13
2023-12-28T05:04:29.029Z,4.93
2023-12-28T05:06:03.158Z,4.72
2023-12-28T05:07:35.107Z,4.78
2023-12-28T05:09:07.010Z,5.13
2023-12-28T05:10:38.667Z,4.40
2023-12-28T05:12:10.311Z,5.15
2023-12-28T05:13:41.908Z,5.35
2023-12-28T05:15:14.054Z,4.65
2023-12-28T05:16:45.639Z,5.13
2023-12-28T05:18:17.367Z,4.63
2023-12-28T05:19:49.316Z,5.22
2023-12-28T05:21:22.150Z,5.20
2023-12-28T05:22:53.819Z,4.93
2023-12-28T05:24:25.527Z,5.32
2023-12-28T05:25:57.167Z,5.10
2023-12-28T05:27:28.853Z,5.20
2023-12-28T05:29:00.483Z,4.57
2023-12-28T05:30:32.205Z,5.20
2023-12-28T05:32:04.031Z,4.47
2023-12-28T05:33:35.783Z,6.07
2023-12-28T05:35:07.680Z,5.43
2023-12-28T05:36:41.957Z,5.00
2023-12-28T05:38:13.658Z,5.15
2023-12-28T05:39:45.347Z,4.47
2023-12-28T05:41:16.998Z,5.70
2023-12-28T05:42:48.641Z,5.50
2023-12-28T05:44:20.295Z,4.47
2023-12-28T05:45:52.102Z,4.85
2023-12-28T05:47:25.148Z,4.25
2023-12-28T05:48:57.024Z,4.22
2023-12-28T05:50:28.713Z,3.95
2023-12-28T05:52:00.409Z,4.13
2023-12-28T05:53:32.095Z,5.00
2023-12-28T05:55:03.996Z,4.63
2023-12-28T05:56:35.703Z,3.75
2023-12-28T05:58:07.371Z,4.38
2023-12-28T05:59:42.623Z,3.70
2023-12-28T06:01:14.298Z,4.05
2023-12-28T06:02:47.436Z,3.83
2023-12-28T06:04:19.231Z,4.32
2023-12-28T06:05:51.043Z,4.53
2023-12-28T06:07:22.807Z,3.78
2023-12-28T06:08:54.695Z,5.15
2023-12-28T06:10:26.464Z,4.07
2023-12-28T06:11:58.078Z,4.38
2023-12-28T06:13:29.660Z,4.28
2023-12-28T06:15:02.462Z,5.57
2023-12-28T06:16:34.735Z,5.70
2023-12-28T06:18:07.132Z,5.85
2023-12-28T06:19:39.023Z,4.97
2023-12-28T06:21:10.795Z,6.93
2023-12-28T06:22:42.515Z,5.53
2023-12-28T06:24:14.185Z,6.07
2023-12-28T06:25:45.892Z,6.18
2023-12-28T06:27:17.612Z,7.47
2023-12-28T06:28:49.228Z,7.10
2023-12-28T06:30:20.953Z,6.65
2023-12-28T06:31:52.682Z,7.03
2023-12-28T06:33:24.483Z,7.20
2023-12-28T06:34:56.385Z,6.38
2023-12-28T06:36:28.203Z,5.57
2023-12-28T06:38:00.134Z,5.40
2023-12-28T06:39:31.993Z,5.10
2023-12-28T06:41:03.620Z,5.53
2023-12-28T06:42:35.228Z,5.85
2023-12-28T06:44:06.994Z,4.90
2023-12-28T06:45:39.980Z,4.97
2023-12-28T06:47:11.714Z,4.88
2023-12-28T06:48:44.770Z,5.05
2023-12-28T06:50:16.628Z,4.40
2023-12-28T06:51:48.347Z,5.88
2023-12-28T06:53:20.098Z,4.20
2023-12-28T06:54:52.956Z,6.05
2023-12-28T06:56:24.633Z,4.80
2023-12-28T06:57:56.474Z,5.75
2023-12-28T06:59:28.554Z,5.30
2023-12-28T07:01:00.477Z,4.78
2023-12-28T07:02:32.164Z,5.22
2023-12-28T07:04:03.796Z,5.07
2023-12-28T07:05:35.436Z,5.05
2023-12-28T07:07:07.186Z,5.22
2023-12-28T07:08:38.833Z,6.35
2023-12-28T07:10:10.425Z,5.63
2023-12-28T07:11:42.076Z,5.25
2023-12-28T07:13:13.855Z,5.57
2023-12-28T07:14:45.427Z,5.60
2023-12-28T07:16:17.202Z,5.25
2023-12-28T07:17:48.975Z,6.43
2023-12-28T07:19:20.881Z,6.22
2023-12-28T07:20:52.518Z,6.03
2023-12-28T07:22:24.392Z,9.85
2023-12-28T07:23:56.015Z,9.05
2023-12-28T07:25:27.598Z,8.38
2023-12-28T07:26:59.183Z,8.30
2023-12-28T07:28:30.882Z,12.57
2023-12-28T07:30:02.564Z,8.73
2023-12-28T07:31:34.310Z,9.35
2023-12-28T07:33:06.198Z,9.25
2023-12-28T07:34:38.064Z,7.25
2023-12-28T07:36:09.917Z,8.02
2023-12-28T07:37:41.607Z,8.15
2023-12-28T07:39:13.945Z,8.43
2023-12-28T07:40:45.609Z,6.63
2023-12-28T07:42:17.249Z,7.32
2023-12-28T07:43:48.840Z,6.38
2023-12-28T07:45:24.543Z,6.28
2023-12-28T07:46:56.348Z,7.05
2023-12-28T07:48:28.292Z,7.40
2023-12-28T07:50:01.734Z,7.55
2023-12-28T07:51:33.428Z,8.88
2023-12-28T07:53:05.019Z,9.48
2023-12-28T07:54:36.684Z,8.07
2023-12-28T07:56:08.329Z,9.55
2023-12-28T07:57:39.988Z,8.80
2023-12-28T07:59:11.670Z,10.80
2023-12-28T08:00:43.472Z,10.30
2023-12-28T08:02:16.271Z,11.18
2023-12-28T08:03:48.794Z,10.57
2023-12-28T08:05:20.631Z,10.50
2023-12-28T08:06:52.375Z,10.85
2023-12-28T08:08:24.024Z,11.02
2023-12-28T08:09:55.813Z,13.93
2023-12-28T08:11:30.684Z,14.73
2023-12-28T08:13:02.430Z,15.10
2023-12-28T08:14:34.062Z,13.13
2023-12-28T08:16:06.287Z,12.23
2023-12-28T08:17:37.973Z,11.45
2023-12-28T08:19:09.655Z,11.07
2023-12-28T08:20:41.332Z,16.40
2023-12-28T08:22:13.032Z,14.90
2023-12-28T08:23:44.990Z,9.50
2023-12-28T08:25:16.715Z,7.78
2023-12-28T08:26:48.311Z,9.20
2023-12-28T08:28:19.972Z,8.00
2023-12-28T08:29:51.599Z,7.40
2023-12-28T08:31:23.346Z,7.15
2023-12-28T08:32:55.282Z,6.75
2023-12-28T08:34:27.500Z,5.82
2023-12-28T08:35:59.272Z,6.88
2023-12-28T08:37:31.263Z,5.60
2023-12-28T08:39:02.946Z,5.22
2023-12-28T08:40:34.633Z,4.85
2023-12-28T08:42:06.270Z,5.45
2023-12-28T08:43:37.969Z,5.90
2023-12-28T08:45:09.948Z,4.95
2023-12-28T08:46:41.615Z,5.20
2023-12-28T08:48:13.428Z,6.07
2023-12-28T08:49:45.343Z,5.60
2023-12-28T08:51:17.238Z,6.05
2023-12-28T08:52:49.015Z,6.22
2023-12-28T08:54:20.668Z,7.00
2023-12-28T08:55:52.709Z,5.97
2023-12-28T08:57:35.363Z,6.20
2023-12-28T08:59:13.479Z,6.20
2023-12-28T09:00:46.872Z,5.97
2023-12-28T09:02:18.634Z,6.43
2023-12-28T09:03:53.635Z,6.43
2023-12-28T09:05:25.380Z,6.65
2023-12-28T09:06:57.159Z,7.00
2023-12-28T09:08:28.854Z,6.22
2023-12-28T09:10:00.675Z,7.07
2023-12-28T09:11:32.461Z,5.55
2023-12-28T09:13:06.946Z,6.15
2023-12-28T09:14:38.890Z,6.32
2023-12-28T09:16:15.725Z,5.65
2023-12-28T09:17:47.800Z,6.82
2023-12-28T09:19:19.647Z,7.10
2023-12-28T09:20:51.460Z,6.55
2023-12-28T09:22:23.053Z,7.22
2023-12-28T09:23:54.793Z,6.68
2023-12-28T09:25:26.502Z,9.80
2023-12-28T09:26:58.310Z,8.77
2023-12-28T09:28:30.300Z,8.15
2023-12-28T09:30:02.004Z,6.97
2023-12-28T09:31:33.777Z,7.40
2023-12-28T09:33:05.698Z,6.55
2023-12-28T09:34:37.420Z,6.53
2023-12-28T09:36:10.591Z,6.80
2023-12-28T09:37:42.200Z,7.70
2023-12-28T09:39:14.898Z,6.72
2023-12-28T09:40:46.616Z,7.18
2023-12-28T09:42:30.507Z,6.80
2023-12-28T09:44:07.992Z,6.60
2023-12-28T09:45:40.140Z,6.50
2023-12-28T09:47:13.895Z,7.32
2023-12-28T09:48:45.802Z,6.53
2023-12-28T09:50:19.182Z,7.45
2023-12-28T09:51:51.063Z,7.20
2023-12-28T09:53:24.522Z,8.20
2023-12-28T09:54:56.181Z,8.30
2023-12-28T09:56:30.682Z,7.57
2023-12-28T09:58:06.652Z,8.30
2023-12-28T09:59:39.156Z,8.40
2023-12-28T10:01:11.997Z,7.93
2023-12-28T10:02:45.693Z,7.38
2023-12-28T10:04:17.753Z,7.72
2023-12-28T10:05:49.521Z,8.07
2023-12-28T10:07:21.311Z,7.47
2023-12-28T10:09:17.644Z,8.13
2023-12-28T10:10:53.476Z,7.40
2023-12-28T10:12:28.864Z,7.63
2023-12-28T10:14:00.809Z,8.18
2023-12-28T10:15:32.676Z,7.63
2023-12-28T10:17:04.520Z,7.25
2023-12-28T10:18:36.420Z,8.52
2023-12-28T10:20:10.800Z,7.90
2023-12-28T10:21:44.953Z,8.65
2023-12-28T10:23:17.067Z,8.57
2023-12-28T10:24:48.718Z,8.80
2023-12-28T10:26:20.476Z,9.30
2023-12-28T10:27:53.706Z,8.07
2023-12-28T10:29:28.190Z,9.55
2023-12-28T10:31:00.342Z,9.30
2023-12-28T10:32:32.397Z,10.25
2023-12-28T10:34:04.974Z,9.35
2023-12-28T10:35:37.697Z,9.73
2023-12-28T10:37:11.031Z,9.60
2023-12-28T10:38:45.661Z,8.65
2023-12-28T10:40:18.287Z,9.68
2023-12-28T10:41:50.612Z,9.52
2023-12-28T10:43:24.848Z,9.40
2023-12-28T10:45:04.183Z,9.90
2023-12-28T10:46:42.354Z,9.77
2023-12-28T10:48:14.790Z,8.85
2023-12-28T10:49:49.463Z,9.00
2023-12-28T10:51:24.951Z,8.70
2023-12-28T10:53:06.086Z,8.35
2023-12-28T10:54:55.891Z,8.27
2023-12-28T10:56:27.952Z,7.35
2023-12-28T10:58:13.281Z,7.53
2023-12-28T10:59:53.700Z,7.03
2023-12-28T11:01:33.479Z,7.30
2023-12-28T11:03:10.188Z,7.82
2023-12-28T11:04:43.731Z,7.43
2023-12-28T11:06:18.910Z,7.43
2023-12-28T11:07:54.800Z,6.88
2023-12-28T11:09:27.791Z,6.85
2023-12-28T11:11:02.469Z,6.90
2023-12-28T11:12:35.429Z,8.73
2023-12-28T11:14:08.602Z,8.02
2023-12-28T11:15:40.803Z,6.93
2023-12-28T11:17:12.806Z,8.52
2023-12-28T11:18:45.602Z,7.32
2023-12-28T11:20:17.937Z,8.02
2023-12-28T11:21:51.219Z,8.02
2023-12-28T11:23:23.179Z,8.48
2023-12-28T11:24:54.941Z,7.53
2023-12-28T11:26:26.964Z,9.18
2023-12-28T11:27:58.775Z,14.98
2023-12-28T11:29:33.928Z,14.45
2023-12-28T11:31:05.653Z,10.45
2023-12-28T11:32:38.015Z,10.38
2023-12-28T11:34:18.517Z,10.43
2023-12-28T11:35:53.632Z,10.52
2023-12-28T11:37:27.945Z,10.18
2023-12-28T11:39:03.630Z,10.10
2023-12-28T11:40:44.691Z,10.00
2023-12-28T11:42:21.603Z,10.52
2023-12-28T11:43:54.899Z,10.23
2023-12-28T11:45:26.728Z,9.90
2023-12-28T11:46:59.130Z,11.05
2023-12-28T11:48:30.913Z,9.55
2023-12-28T11:50:09.097Z,10.45
2023-12-28T11:51:41.471Z,8.93
2023-12-28T11:53:13.598Z,9.93
2023-12-28T11:54:51.390Z,9.98
2023-12-28T11:56:23.110Z,9.05
2023-12-28T11:57:54.801Z,9.70
2023-12-28T11:59:26.575Z,10.07
2023-12-28T12:00:58.455Z,11.30
2023-12-28T12:02:30.190Z,9.43
2023-12-28T12:04:01.838Z,11.25
2023-12-28T12:05:33.679Z,13.65
2023-12-28T12:07:06.345Z,15.55
2023-12-28T12:08:38.149Z,14.15
2023-12-28T12:10:15.879Z,13.65
2023-12-28T12:11:47.792Z,13.77
2023-12-28T12:13:19.967Z,12.27
2023-12-28T12:14:51.826Z,13.77
2023-12-28T12:16:23.994Z,12.35
2023-12-28T12:17:55.912Z,11.55
2023-12-28T12:19:28.055Z,10.27
2023-12-28T12:20:59.918Z,9.52
2023-12-28T12:22:33.010Z,7.32
2023-12-28T12:24:05.967Z,10.23
2023-12-28T12:25:37.585Z,8.82
2023-12-28T12:27:09.209Z,8.23
2023-12-28T12:28:43.766Z,7.13
2023-12-28T12:30:16.245Z,6.68
2023-12-28T12:31:49.433Z,6.47
2023-12-28T12:33:22.113Z,5.25
2023-12-28T12:34:54.392Z,3.95
2023-12-28T12:36:26.216Z,5.25
2023-12-28T12:37:57.989Z,5.43
2023-12-28T12:39:30.973Z,5.93
2023-12-28T12:41:02.702Z,4.75
2023-12-28T12:42:34.877Z,4.65
2023-12-28T12:44:06.898Z,4.72
2023-12-28T12:45:38.981Z,4.65
2023-12-28T12:47:10.883Z,4.88
2023-12-28T12:48:42.832Z,5.50
2023-12-28T12:50:16.244Z,4.65
2023-12-28T12:51:48.068Z,5.45
2023-12-28T12:53:19.733Z,5.05
2023-12-28T12:54:58.803Z,5.78
2023-12-28T12:56:31.513Z,4.20
2023-12-28T12:58:04.136Z,5.00
2023-12-28T12:59:35.843Z,5.05
2023-12-28T13:01:12.100Z,3.78
2023-12-28T13:02:45.866Z,4.30
2023-12-28T13:04:18.092Z,4.68
2023-12-28T13:05:49.913Z,4.22
2023-12-28T13:07:21.747Z,4.78
2023-12-28T13:08:53.388Z,3.50
2023-12-28T13:10:25.333Z,3.33
2023-12-28T13:11:57.913Z,2.75
2023-12-28T13:13:29.648Z,3.08
2023-12-28T13:15:01.777Z,3.00
2023-12-28T13:16:33.542Z,2.33
2023-12-28T13:18:05.434Z,2.35
2023-12-28T13:19:37.643Z,2.30
2023-12-28T13:21:10.142Z,2.40
2023-12-28T13:22:41.813Z,2.63
2023-12-28T13:24:13.515Z,2.50
2023-12-28T13:25:45.677Z,2.50
2023-12-28T13:27:17.431Z,3.10
2023-12-28T13:28:49.115Z,3.10
2023-12-28T13:30:22.546Z,2.65
2023-12-28T13:31:54.301Z,2.75
2023-12-28T13:33:26.213Z,2.65
2023-12-28T13:35:01.750Z,7.10
2023-12-28T13:36:35.477Z,3.60
2023-12-28T13:38:07.106Z,3.00
2023-12-28T13:39:39.975Z,3.00
2023-12-28T13:41:11.775Z,2.90
2023-12-28T13:42:43.580Z,2.72
2023-12-28T13:44:15.362Z,3.05
2023-12-28T13:45:47.023Z,2.78
2023-12-28T13:47:18.694Z,3.05
2023-12-28T13:48:50.589Z,2.75
2023-12-28T13:50:22.409Z,2.40
2023-12-28T13:51:54.559Z,3.58
2023-12-28T13:53:26.288Z,2.45
2023-12-28T13:54:59.245Z,3.00
2023-12-28T13:56:30.971Z,2.50
2023-12-28T13:58:04.177Z,2.60
2023-12-28T13:59:35.801Z,2.42
2023-12-28T14:01:07.717Z,2.53
2023-12-28T14:02:40.974Z,2.75
2023-12-28T14:04:12.743Z,2.55
2023-12-28T14:05:44.660Z,2.88
2023-12-28T14:07:16.419Z,2.42
2023-12-28T14:08:48.136Z,2.63
2023-12-28T14:10:19.736Z,2.92
2023-12-28T14:11:51.432Z,3.03
2023-12-28T14:13:23.149Z,3.42
2023-12-28T14:14:54.824Z,3.20
2023-12-28T14:16:26.476Z,2.92
2023-12-28T14:17:58.193Z,4.13
2023-12-28T14:19:29.921Z,3.15
2023-12-28T14:21:01.708Z,3.65
2023-12-28T14:22:33.728Z,4.03
2023-12-28T14:24:07.301Z,3.33
2023-12-28T14:25:39.241Z,3.22
2023-12-28T14:27:12.802Z,3.25
2023-12-28T14:28:45.504Z,3.42
2023-12-28T14:30:17.908Z,3.22
2023-12-28T14:31:50.555Z,3.10
2023-12-28T14:33:22.920Z,2.50
2023-12-28T14:34:54.931Z,3.42
2023-12-28T14:36:34.152Z,3.22
2023-12-28T14:38:09.122Z,3.42
2023-12-28T14:39:40.896Z,4.60
2023-12-28T14:41:12.515Z,6.05
2023-12-28T14:42:44.145Z,3.03
2023-12-28T14:44:15.915Z,3.85
2023-12-28T14:45:48.615Z,3.95
2023-12-28T14:47:20.433Z,4.95
2023-12-28T14:48:53.085Z,5.47
2023-12-28T14:50:24.695Z,6.60
2023-12-28T14:51:56.336Z,7.68
2023-12-28T14:53:28.735Z,7.05
2023-12-28T14:55:00.536Z,7.03
2023-12-28T14:56:40.430Z,6.63
2023-12-28T14:58:18.102Z,7.57
2023-12-28T14:59:49.790Z,6.68
2023-12-28T15:01:22.770Z,7.10
2023-12-28T15:02:54.408Z,6.88
2023-12-28T15:04:27.185Z,7.43
2023-12-28T15:05:59.205Z,7.70
2023-12-28T15:07:30.892Z,7.85
2023-12-28T15:09:02.481Z,7.47
2023-12-28T15:10:34.516Z,7.93
2023-12-28T15:12:06.706Z,9.63
2023-12-28T15:13:39.238Z,7.43
2023-12-28T15:15:13.605Z,8.10
2023-12-28T15:16:45.896Z,8.25
2023-12-28T15:18:18.747Z,7.30
2023-12-28T15:19:51.174Z,6.75
2023-12-28T15:21:23.250Z,6.28
2023-12-28T15:22:55.110Z,6.28
2023-12-28T15:24:27.038Z,6.20
2023-12-28T15:25:58.939Z,6.70
2023-12-28T15:27:30.628Z,6.07
2023-12-28T15:29:02.306Z,5.47
2023-12-28T15:30:34.191Z,5.38
2023-12-28T15:32:06.194Z,4.93
2023-12-28T15:33:38.069Z,4.75
2023-12-28T15:35:14.039Z,5.15
2023-12-28T15:38:20.034Z,4.07
2023-12-28T15:39:51.871Z,5.25
2023-12-28T15:41:23.582Z,5.70
2023-12-28T15:42:56.121Z,5.72
2023-12-28T15:44:28.205Z,6.55
2023-12-28T15:45:59.984Z,6.53
2023-12-28T15:47:31.630Z,6.10
2023-12-28T15:49:03.522Z,6.15
2023-12-28T15:50:35.270Z,4.70
2023-12-28T15:52:06.992Z,3.95
2023-12-28T15:53:38.690Z,3.60
2023-12-28T15:55:10.554Z,3.45
2023-12-28T15:56:42.287Z,3.38
2023-12-28T15:58:14.086Z,3.55
2023-12-28T15:59:45.783Z,3.70
2023-12-28T16:01:19.761Z,3.90
2023-12-28T16:02:51.819Z,4.63
2023-12-28T16:04:24.548Z,3.92
2023-12-28T16:05:56.254Z,3.90
2023-12-28T16:07:27.955Z,3.40
2023-12-28T16:08:59.645Z,3.80
2023-12-28T16:10:31.264Z,3.35
2023-12-28T16:12:02.945Z,4.28
2023-12-28T16:13:37.698Z,9.27
2023-12-28T16:15:10.123Z,7.65
2023-12-28T16:16:42.329Z,6.90
2023-12-28T16:18:14.599Z,6.57
2023-12-28T16:19:46.530Z,6.72
2023-12-28T16:21:18.690Z,5.95
2023-12-28T16:22:50.486Z,5.72
2023-12-28T16:24:22.168Z,5.07
2023-12-28T16:25:53.900Z,4.78
2023-12-28T16:27:25.582Z,4.70
2023-12-28T16:28:57.465Z,5.25
2023-12-28T16:30:29.561Z,6.18
2023-12-28T16:32:01.803Z,5.05
2023-12-28T16:33:33.882Z,5.28
2023-12-28T16:35:07.062Z,5.65
2023-12-28T16:36:38.885Z,6.35
2023-12-28T16:38:10.546Z,6.22
2023-12-28T16:39:42.252Z,6.05
2023-12-28T16:41:13.935Z,6.22
2023-12-28T16:42:45.826Z,6.03
2023-12-28T16:44:18.046Z,6.47
2023-12-28T16:45:50.588Z,5.97
2023-12-28T16:47:22.304Z,7.03
2023-12-28T16:48:54.136Z,8.15
2023-12-28T16:50:26.255Z,8.15
2023-12-28T16:51:58.377Z,7.50
2023-12-28T16:53:31.481Z,8.00
2023-12-28T16:55:03.628Z,8.57
2023-12-28T16:56:36.790Z,7.65
2023-12-28T16:58:09.523Z,7.43
2023-12-28T16:59:41.786Z,7.60
2023-12-28T17:01:14.674Z,7.35
2023-12-28T17:02:46.309Z,6.93
2023-12-28T17:04:18.166Z,7.68
2023-12-28T17:05:50.231Z,7.50
2023-12-28T17:07:22.071Z,7.40
2023-12-28T17:08:53.881Z,8.00
2023-12-28T17:10:26.803Z,7.70
2023-12-28T17:12:31.724Z,7.20
2023-12-28T17:14:04.011Z,7.07
2023-12-28T17:15:38.535Z,9.13
2023-12-28T17:17:10.531Z,8.35
2023-12-28T17:18:42.496Z,8.30
2023-12-28T17:20:14.702Z,8.70
2023-12-28T17:21:46.504Z,8.10
2023-12-28T17:23:27.564Z,8.82
2023-12-28T17:25:12.066Z,9.43
2023-12-28T17:26:49.334Z,9.43
2023-12-28T17:28:25.106Z,9.48
2023-12-28T17:30:04.947Z,9.50
2023-12-28T17:31:38.623Z,11.85
2023-12-28T17:33:13.126Z,15.57
2023-12-28T17:34:45.350Z,14.95
2023-12-28T17:36:17.523Z,17.42
2023-12-28T17:37:49.579Z,17.23
2023-12-28T17:39:24.033Z,18.83
2023-12-28T17:40:56.007Z,18.30
2023-12-28T17:42:30.942Z,19.77
2023-12-28T17:44:11.846Z,13.80
2023-12-28T17:45:52.578Z,14.10
2023-12-28T17:48:09.470Z,13.65
2023-12-28T17:49:48.837Z,13.27
2023-12-28T17:51:25.557Z,14.05
2023-12-28T17:52:57.447Z,13.18
2023-12-28T17:54:29.136Z,11.88
2023-12-28T17:56:00.989Z,11.05
2023-12-28T17:57:32.666Z,11.55
2023-12-28T17:59:04.355Z,13.05
2023-12-28T18:00:38.600Z,12.88
2023-12-28T18:02:12.838Z,11.20
2023-12-28T18:03:47.742Z,9.77
2023-12-28T18:05:19.590Z,8.60
2023-12-28T18:06:53.554Z,7.85
2023-12-28T18:08:25.408Z,7.07
2023-12-28T18:09:57.486Z,7.35
2023-12-28T18:11:29.241Z,7.00
2023-12-28T18:13:01.018Z,8.50
2023-12-28T18:14:32.627Z,7.80
2023-12-28T18:16:05.951Z,8.73
2023-12-28T18:17:39.646Z,7.90
2023-12-28T18:19:11.449Z,7.57
2023-12-28T18:20:45.733Z,8.48
2023-12-28T18:22:17.467Z,9.93
2023-12-28T18:23:49.514Z,9.18
2023-12-28T18:25:21.281Z,8.55
2023-12-28T18:26:52.920Z,11.80
2023-12-28T18:28:24.521Z,10.77
2023-12-28T18:29:56.189Z,10.07
2023-12-28T18:31:27.899Z,8.38
2023-12-28T18:32:59.687Z,7.18
2023-12-28T18:34:31.396Z,7.35
2023-12-28T18:36:03.755Z,6.65
2023-12-28T18:37:35.387Z,7.45
2023-12-28T18:39:07.028Z,6.68
2023-12-28T18:40:38.675Z,8.10
2023-12-28T18:42:10.528Z,8.68
2023-12-28T18:43:42.159Z,7.70
2023-12-28T18:45:13.934Z,7.25
2023-12-28T18:46:45.536Z,7.38
2023-12-28T18:48:18.014Z,7.25
2023-12-28T18:49:50.941Z,7.13
2023-12-28T18:51:22.681Z,7.97
2023-12-28T18:52:54.279Z,6.88
2023-12-28T18:54:25.981Z,6.90
2023-12-28T18:55:57.649Z,7.03
2023-12-28T18:57:29.652Z,7.82
2023-12-28T18:59:01.332Z,8.10
2023-12-28T19:00:34.652Z,7.03
2023-12-28T19:02:09.562Z,7.93
2023-12-28T19:03:47.041Z,7.45
2023-12-28T19:05:20.494Z,7.20
2023-12-28T19:06:52.209Z,7.15
2023-12-28T19:08:23.978Z,10.25
2023-12-28T19:09:55.759Z,9.20
2023-12-28T19:11:27.389Z,9.40
2023-12-28T19:12:59.017Z,9.63
2023-12-28T19:14:30.644Z,8.55
2023-12-28T19:16:04.169Z,8.32
2023-12-28T19:17:38.891Z,7.47
2023-12-28T19:19:10.723Z,8.10
2023-12-28T19:20:42.650Z,8.55
2023-12-28T19:22:15.456Z,8.25
2023-12-28T19:23:47.395Z,8.30
2023-12-28T19:25:20.634Z,10.77
2023-12-28T19:26:52.315Z,10.05
2023-12-28T19:28:23.946Z,8.70
2023-12-28T19:29:57.891Z,8.93
2023-12-28T19:31:29.579Z,8.65
2023-12-28T19:33:01.592Z,8.57
2023-12-28T19:34:33.373Z,7.65
2023-12-28T19:36:05.504Z,7.30
2023-12-28T19:37:37.176Z,7.47
2023-12-28T19:39:09.716Z,7.78
2023-12-28T19:40:41.386Z,7.95
2023-12-28T19:42:13.115Z,7.03
2023-12-28T19:43:47.059Z,6.97
2023-12-28T19:45:19.259Z,8.88
2023-12-28T19:46:51.018Z,9.43
2023-12-28T19:48:22.820Z,7.25
2023-12-28T19:49:54.608Z,7.65
2023-12-28T19:51:26.237Z,8.30
2023-12-28T19:52:57.846Z,6.60
2023-12-28T19:54:29.505Z,7.15
2023-12-28T19:56:03.474Z,7.13
2023-12-28T19:57:36.252Z,7.75
2023-12-28T19:59:07.980Z,7.82
2023-12-28T20:00:40.097Z,8.82
2023-12-28T20:02:13.432Z,8.30
2023-12-28T20:03:45.109Z,9.25
2023-12-28T20:05:18.437Z,9.68
2023-12-28T20:06:50.819Z,9.18
2023-12-28T20:08:22.472Z,8.88
2023-12-28T20:09:54.329Z,8.68
2023-12-28T20:11:26.968Z,7.80
2023-12-28T20:12:59.798Z,9.30
2023-12-28T20:14:31.568Z,8.32
2023-12-28T20:16:06.004Z,10.05
2023-12-28T20:17:38.351Z,9.15
2023-12-28T20:19:10.273Z,8.43
2023-12-28T20:20:42.147Z,9.68
2023-12-28T20:22:13.823Z,7.53
2023-12-28T20:23:45.564Z,6.85
2023-12-28T20:25:17.825Z,7.68
2023-12-28T20:26:49.580Z,6.95
2023-12-28T20:28:21.388Z,7.95
2023-12-28T20:29:53.483Z,7.82
2023-12-28T20:31:25.250Z,8.32
2023-12-28T20:32:58.464Z,7.03